Kamen'-na-Obi, Russia
Current Conditions -  °F | °C
As of 2:30 PM on Saturday 25 Oct 2014 (Local Time) from UNBB Reporting Station
Rain Showers Rain Showers  
Wind Chill: -1°   Ceiling: 2000
Heat Index:   Visibility: 6mi
Dew Point:   Wind: 18mph
Humidity: 87%   Direction: 270°W
Pressure: 29.74"   Gusts: NA
Location:  53.82°N, 81.27°E
Report Text: UNBB 250730Z 27008MPS 9999 -SHRA BKN020CB 04/02 Q1007 NOSIG RMKQFE733/0978 24290151
Loading
Personal Weather Stations






























Interactive Weather Map
Tropical Storm Tracking
New forecast layout! Learn more

10-Day Weather Forecast

Advertisements
Track Severe Weather on mobile